sensor_id;sensor_type;location;lat;lon;timestamp;P1;durP1;ratioP1;P2;durP2;ratioP2
27187;SDS011;14708;50.872;5.306;2024-02-26T00:00:37;0.88;;;0.50;;
27187;SDS011;14708;50.872;5.306;2024-02-26T00:03:03;0.60;;;0.50;;
27187;SDS011;14708;50.872;5.306;2024-02-26T00:05:31;0.52;;;0.40;;
27187;SDS011;14708;50.872;5.306;2024-02-26T00:07:57;1.67;;;0.50;;
27187;SDS011;14708;50.872;5.306;2024-02-26T00:10:22;0.52;;;0.38;;
27187;SDS011;14708;50.872;5.306;2024-02-26T00:12:49;1.60;;;0.30;;
27187;SDS011;14708;50.872;5.306;2024-02-26T00:15:15;0.98;;;0.73;;
27187;SDS011;14708;50.872;5.306;2024-02-26T00:17:41;3.10;;;1.10;;
27187;SDS011;14708;50.872;5.306;2024-02-26T00:20:07;0.80;;;0.40;;
27187;SDS011;14708;50.872;5.306;2024-02-26T00:22:36;0.70;;;0.70;;
27187;SDS011;14708;50.872;5.306;2024-02-26T00:25:02;0.75;;;0.57;;
27187;SDS011;14708;50.872;5.306;2024-02-26T00:27:30;0.98;;;0.60;;
27187;SDS011;14708;50.872;5.306;2024-02-26T00:29:57;0.80;;;0.60;;
27187;SDS011;14708;50.872;5.306;2024-02-26T00:32:22;0.70;;;0.55;;
27187;SDS011;14708;50.872;5.306;2024-02-26T00:34:49;0.65;;;0.32;;
27187;SDS011;14708;50.872;5.306;2024-02-26T00:37:15;0.55;;;0.40;;
27187;SDS011;14708;50.872;5.306;2024-02-26T00:39:41;1.67;;;0.50;;
27187;SDS011;14708;50.872;5.306;2024-02-26T00:42:06;0.75;;;0.40;;
27187;SDS011;14708;50.872;5.306;2024-02-26T00:44:32;0.30;;;0.30;;
27187;SDS011;14708;50.872;5.306;2024-02-26T00:46:58;1.35;;;0.50;;
27187;SDS011;14708;50.872;5.306;2024-02-26T00:49:24;1.25;;;0.60;;
27187;SDS011;14708;50.872;5.306;2024-02-26T00:51:51;0.55;;;0.40;;
27187;SDS011;14708;50.872;5.306;2024-02-26T00:54:17;1.27;;;0.50;;
27187;SDS011;14708;50.872;5.306;2024-02-26T00:56:43;0.77;;;0.38;;
27187;SDS011;14708;50.872;5.306;2024-02-26T00:59:09;0.43;;;0.40;;
27187;SDS011;14708;50.872;5.306;2024-02-26T01:01:35;0.90;;;0.50;;
27187;SDS011;14708;50.872;5.306;2024-02-26T01:04:01;1.42;;;0.73;;
27187;SDS011;14708;50.872;5.306;2024-02-26T01:06:28;1.50;;;0.50;;
27187;SDS011;14708;50.872;5.306;2024-02-26T01:08:54;1.52;;;0.50;;
27187;SDS011;14708;50.872;5.306;2024-02-26T01:11:20;0.52;;;0.40;;
27187;SDS011;14708;50.872;5.306;2024-02-26T01:13:46;1.15;;;0.38;;
27187;SDS011;14708;50.872;5.306;2024-02-26T01:16:12;0.70;;;0.50;;
27187;SDS011;14708;50.872;5.306;2024-02-26T01:18:38;0.40;;;0.40;;
27187;SDS011;14708;50.872;5.306;2024-02-26T01:21:04;1.08;;;0.50;;
27187;SDS011;14708;50.872;5.306;2024-02-26T01:23:33;0.57;;;0.57;;
27187;SDS011;14708;50.872;5.306;2024-02-26T01:25:59;1.27;;;0.75;;
27187;SDS011;14708;50.872;5.306;2024-02-26T01:28:25;0.93;;;0.70;;
27187;SDS011;14708;50.872;5.306;2024-02-26T01:30:52;1.77;;;0.60;;
27187;SDS011;14708;50.872;5.306;2024-02-26T01:33:19;0.50;;;0.50;;
27187;SDS011;14708;50.872;5.306;2024-02-26T01:35:45;1.30;;;0.50;;
27187;SDS011;14708;50.872;5.306;2024-02-26T01:38:11;0.45;;;0.43;;
27187;SDS011;14708;50.872;5.306;2024-02-26T01:40:39;0.77;;;0.50;;
27187;SDS011;14708;50.872;5.306;2024-02-26T01:43:05;0.73;;;0.50;;
27187;SDS011;14708;50.872;5.306;2024-02-26T01:45:31;0.90;;;0.60;;
27187;SDS011;14708;50.872;5.306;2024-02-26T01:47:56;0.52;;;0.50;;
27187;SDS011;14708;50.872;5.306;2024-02-26T01:50:23;0.60;;;0.40;;
27187;SDS011;14708;50.872;5.306;2024-02-26T01:52:49;0.60;;;0.50;;
27187;SDS011;14708;50.872;5.306;2024-02-26T01:55:15;3.40;;;0.70;;
27187;SDS011;14708;50.872;5.306;2024-02-26T01:57:43;0.95;;;0.50;;
27187;SDS011;14708;50.872;5.306;2024-02-26T02:00:10;1.17;;;0.50;;
27187;SDS011;14708;50.872;5.306;2024-02-26T02:02:37;0.75;;;0.40;;
27187;SDS011;14708;50.872;5.306;2024-02-26T02:05:06;0.40;;;0.40;;
27187;SDS011;14708;50.872;5.306;2024-02-26T02:07:34;0.52;;;0.40;;
27187;SDS011;14708;50.872;5.306;2024-02-26T02:10:01;2.28;;;0.60;;
27187;SDS011;14708;50.872;5.306;2024-02-26T02:12:27;0.65;;;0.60;;
27187;SDS011;14708;50.872;5.306;2024-02-26T02:14:53;0.63;;;0.50;;
27187;SDS011;14708;50.872;5.306;2024-02-26T02:17:19;1.13;;;0.50;;
27187;SDS011;14708;50.872;5.306;2024-02-26T02:19:48;0.40;;;0.40;;
27187;SDS011;14708;50.872;5.306;2024-02-26T02:22:14;0.45;;;0.45;;
27187;SDS011;14708;50.872;5.306;2024-02-26T02:24:39;0.50;;;0.30;;
27187;SDS011;14708;50.872;5.306;2024-02-26T02:27:05;0.40;;;0.40;;
27187;SDS011;14708;50.872;5.306;2024-02-26T02:29:31;1.10;;;0.55;;
27187;SDS011;14708;50.872;5.306;2024-02-26T02:31:56;0.32;;;0.32;;
27187;SDS011;14708;50.872;5.306;2024-02-26T02:34:23;0.70;;;0.40;;
27187;SDS011;14708;50.872;5.306;2024-02-26T02:36:53;0.73;;;0.60;;
27187;SDS011;14708;50.872;5.306;2024-02-26T02:39:19;1.15;;;0.55;;
27187;SDS011;14708;50.872;5.306;2024-02-26T02:41:45;0.65;;;0.55;;
27187;SDS011;14708;50.872;5.306;2024-02-26T02:44:11;7.78;;;0.68;;
27187;SDS011;14708;50.872;5.306;2024-02-26T02:46:37;0.32;;;0.30;;
27187;SDS011;14708;50.872;5.306;2024-02-26T02:49:04;0.77;;;0.63;;
27187;SDS011;14708;50.872;5.306;2024-02-26T02:53:58;0.55;;;0.50;;
27187;SDS011;14708;50.872;5.306;2024-02-26T02:56:24;0.40;;;0.40;;
27187;SDS011;14708;50.872;5.306;2024-02-26T02:58:51;0.63;;;0.40;;
27187;SDS011;14708;50.872;5.306;2024-02-26T03:01:17;0.40;;;0.30;;
27187;SDS011;14708;50.872;5.306;2024-02-26T03:03:42;0.50;;;0.40;;
27187;SDS011;14708;50.872;5.306;2024-02-26T03:06:09;0.38;;;0.38;;
27187;SDS011;14708;50.872;5.306;2024-02-26T03:08:35;0.30;;;0.30;;
27187;SDS011;14708;50.872;5.306;2024-02-26T03:13:30;0.52;;;0.30;;
27187;SDS011;14708;50.872;5.306;2024-02-26T03:15:56;1.40;;;0.73;;
27187;SDS011;14708;50.872;5.306;2024-02-26T03:18:22;1.70;;;0.73;;
27187;SDS011;14708;50.872;5.306;2024-02-26T03:20:48;0.63;;;0.43;;
27187;SDS011;14708;50.872;5.306;2024-02-26T03:23:14;1.58;;;0.55;;
27187;SDS011;14708;50.872;5.306;2024-02-26T03:25:44;1.15;;;0.70;;
27187;SDS011;14708;50.872;5.306;2024-02-26T03:28:13;0.95;;;0.57;;
27187;SDS011;14708;50.872;5.306;2024-02-26T03:30:40;0.50;;;0.38;;
27187;SDS011;14708;50.872;5.306;2024-02-26T03:33:08;0.75;;;0.50;;
27187;SDS011;14708;50.872;5.306;2024-02-26T03:35:34;0.30;;;0.30;;
27187;SDS011;14708;50.872;5.306;2024-02-26T03:38:01;1.35;;;0.52;;
27187;SDS011;14708;50.872;5.306;2024-02-26T03:40:27;0.95;;;0.50;;
27187;SDS011;14708;50.872;5.306;2024-02-26T03:42:53;0.80;;;0.40;;
27187;SDS011;14708;50.872;5.306;2024-02-26T03:45:19;0.60;;;0.47;;
27187;SDS011;14708;50.872;5.306;2024-02-26T03:47:44;0.38;;;0.38;;
27187;SDS011;14708;50.872;5.306;2024-02-26T03:50:11;0.40;;;0.40;;
27187;SDS011;14708;50.872;5.306;2024-02-26T03:52:38;0.40;;;0.40;;
27187;SDS011;14708;50.872;5.306;2024-02-26T03:55:04;0.45;;;0.40;;
27187;SDS011;14708;50.872;5.306;2024-02-26T03:57:30;1.13;;;0.60;;
27187;SDS011;14708;50.872;5.306;2024-02-26T03:59:56;0.35;;;0.35;;
27187;SDS011;14708;50.872;5.306;2024-02-26T04:02:22;0.60;;;0.47;;
27187;SDS011;14708;50.872;5.306;2024-02-26T04:04:48;0.45;;;0.45;;
27187;SDS011;14708;50.872;5.306;2024-02-26T04:07:14;1.05;;;0.40;;
27187;SDS011;14708;50.872;5.306;2024-02-26T04:09:40;0.55;;;0.40;;
27187;SDS011;14708;50.872;5.306;2024-02-26T04:12:05;0.40;;;0.40;;
27187;SDS011;14708;50.872;5.306;2024-02-26T04:14:31;0.60;;;0.40;;
27187;SDS011;14708;50.872;5.306;2024-02-26T04:16:57;0.55;;;0.40;;
27187;SDS011;14708;50.872;5.306;2024-02-26T04:19:24;0.35;;;0.30;;
27187;SDS011;14708;50.872;5.306;2024-02-26T04:21:52;0.60;;;0.45;;
27187;SDS011;14708;50.872;5.306;2024-02-26T04:24:19;1.75;;;0.45;;
27187;SDS011;14708;50.872;5.306;2024-02-26T04:26:44;0.82;;;0.30;;
27187;SDS011;14708;50.872;5.306;2024-02-26T04:29:10;0.93;;;0.57;;
27187;SDS011;14708;50.872;5.306;2024-02-26T04:31:37;1.02;;;0.40;;
27187;SDS011;14708;50.872;5.306;2024-02-26T04:34:04;0.32;;;0.30;;
27187;SDS011;14708;50.872;5.306;2024-02-26T04:36:30;0.68;;;0.43;;
27187;SDS011;14708;50.872;5.306;2024-02-26T04:38:55;0.70;;;0.40;;
27187;SDS011;14708;50.872;5.306;2024-02-26T04:41:21;0.77;;;0.50;;
27187;SDS011;14708;50.872;5.306;2024-02-26T04:43:47;0.95;;;0.60;;
27187;SDS011;14708;50.872;5.306;2024-02-26T04:46:12;0.52;;;0.50;;
27187;SDS011;14708;50.872;5.306;2024-02-26T04:48:39;0.60;;;0.60;;
27187;SDS011;14708;50.872;5.306;2024-02-26T04:51:06;2.00;;;0.50;;
27187;SDS011;14708;50.872;5.306;2024-02-26T04:53:32;0.90;;;0.60;;
27187;SDS011;14708;50.872;5.306;2024-02-26T04:55:57;0.40;;;0.40;;
27187;SDS011;14708;50.872;5.306;2024-02-26T04:58:23;0.93;;;0.60;;
27187;SDS011;14708;50.872;5.306;2024-02-26T05:00:50;1.05;;;0.50;;
27187;SDS011;14708;50.872;5.306;2024-02-26T05:03:16;0.60;;;0.50;;
27187;SDS011;14708;50.872;5.306;2024-02-26T05:05:45;0.40;;;0.40;;
27187;SDS011;14708;50.872;5.306;2024-02-26T05:08:11;1.60;;;0.70;;
27187;SDS011;14708;50.872;5.306;2024-02-26T05:10:38;0.93;;;0.73;;
27187;SDS011;14708;50.872;5.306;2024-02-26T05:13:08;0.28;;;0.28;;
27187;SDS011;14708;50.872;5.306;2024-02-26T05:15:36;1.05;;;0.40;;
27187;SDS011;14708;50.872;5.306;2024-02-26T05:18:02;0.30;;;0.30;;
27187;SDS011;14708;50.872;5.306;2024-02-26T05:20:29;0.30;;;0.30;;
27187;SDS011;14708;50.872;5.306;2024-02-26T05:22:54;1.48;;;0.40;;
27187;SDS011;14708;50.872;5.306;2024-02-26T05:25:20;0.35;;;0.35;;
27187;SDS011;14708;50.872;5.306;2024-02-26T05:27:46;0.45;;;0.45;;
27187;SDS011;14708;50.872;5.306;2024-02-26T05:30:13;0.63;;;0.40;;
27187;SDS011;14708;50.872;5.306;2024-02-26T05:32:39;0.60;;;0.57;;
27187;SDS011;14708;50.872;5.306;2024-02-26T05:35:05;0.35;;;0.30;;
27187;SDS011;14708;50.872;5.306;2024-02-26T05:37:31;0.68;;;0.50;;
27187;SDS011;14708;50.872;5.306;2024-02-26T05:39:57;0.40;;;0.40;;
27187;SDS011;14708;50.872;5.306;2024-02-26T05:42:24;0.85;;;0.50;;
27187;SDS011;14708;50.872;5.306;2024-02-26T05:44:50;0.47;;;0.47;;
27187;SDS011;14708;50.872;5.306;2024-02-26T05:47:16;1.13;;;0.50;;
27187;SDS011;14708;50.872;5.306;2024-02-26T05:49:42;0.60;;;0.60;;
27187;SDS011;14708;50.872;5.306;2024-02-26T05:52:08;0.82;;;0.57;;
27187;SDS011;14708;50.872;5.306;2024-02-26T05:54:34;0.40;;;0.40;;
27187;SDS011;14708;50.872;5.306;2024-02-26T05:57:01;0.68;;;0.50;;
27187;SDS011;14708;50.872;5.306;2024-02-26T05:59:27;0.50;;;0.40;;
27187;SDS011;14708;50.872;5.306;2024-02-26T06:01:53;1.75;;;0.60;;
27187;SDS011;14708;50.872;5.306;2024-02-26T06:04:18;0.43;;;0.40;;
27187;SDS011;14708;50.872;5.306;2024-02-26T06:06:44;0.55;;;0.40;;
27187;SDS011;14708;50.872;5.306;2024-02-26T06:09:10;0.40;;;0.40;;
27187;SDS011;14708;50.872;5.306;2024-02-26T06:11:36;0.68;;;0.40;;
27187;SDS011;14708;50.872;5.306;2024-02-26T06:14:02;1.40;;;0.43;;
27187;SDS011;14708;50.872;5.306;2024-02-26T06:16:28;2.33;;;1.48;;
27187;SDS011;14708;50.872;5.306;2024-02-26T06:18:53;0.60;;;0.43;;
27187;SDS011;14708;50.872;5.306;2024-02-26T06:21:19;0.77;;;0.40;;
27187;SDS011;14708;50.872;5.306;2024-02-26T06:23:46;0.95;;;0.45;;
27187;SDS011;14708;50.872;5.306;2024-02-26T06:26:11;0.70;;;0.45;;
27187;SDS011;14708;50.872;5.306;2024-02-26T06:28:38;0.60;;;0.50;;
27187;SDS011;14708;50.872;5.306;2024-02-26T06:31:05;0.30;;;0.30;;
27187;SDS011;14708;50.872;5.306;2024-02-26T06:33:31;1.20;;;0.40;;
27187;SDS011;14708;50.872;5.306;2024-02-26T06:35:58;0.45;;;0.32;;
27187;SDS011;14708;50.872;5.306;2024-02-26T06:38:25;0.55;;;0.47;;
27187;SDS011;14708;50.872;5.306;2024-02-26T06:40:50;0.98;;;0.50;;
27187;SDS011;14708;50.872;5.306;2024-02-26T06:43:16;0.60;;;0.50;;
27187;SDS011;14708;50.872;5.306;2024-02-26T06:45:42;0.65;;;0.45;;
27187;SDS011;14708;50.872;5.306;2024-02-26T06:48:10;1.55;;;0.32;;
27187;SDS011;14708;50.872;5.306;2024-02-26T06:50:35;0.50;;;0.47;;
27187;SDS011;14708;50.872;5.306;2024-02-26T06:53:01;0.40;;;0.40;;
27187;SDS011;14708;50.872;5.306;2024-02-26T06:55:28;0.45;;;0.40;;
27187;SDS011;14708;50.872;5.306;2024-02-26T06:57:53;0.40;;;0.30;;
27187;SDS011;14708;50.872;5.306;2024-02-26T07:00:20;0.85;;;0.50;;
27187;SDS011;14708;50.872;5.306;2024-02-26T07:02:47;1.05;;;0.60;;
27187;SDS011;14708;50.872;5.306;2024-02-26T07:05:12;0.60;;;0.50;;
27187;SDS011;14708;50.872;5.306;2024-02-26T07:07:38;0.45;;;0.45;;
27187;SDS011;14708;50.872;5.306;2024-02-26T07:10:05;0.50;;;0.40;;
27187;SDS011;14708;50.872;5.306;2024-02-26T07:12:31;0.40;;;0.40;;
27187;SDS011;14708;50.872;5.306;2024-02-26T07:14:57;0.55;;;0.43;;
27187;SDS011;14708;50.872;5.306;2024-02-26T07:17:23;1.02;;;0.60;;
27187;SDS011;14708;50.872;5.306;2024-02-26T07:19:49;0.80;;;0.50;;
27187;SDS011;14708;50.872;5.306;2024-02-26T07:22:14;0.40;;;0.30;;
27187;SDS011;14708;50.872;5.306;2024-02-26T07:24:42;0.60;;;0.47;;
27187;SDS011;14708;50.872;5.306;2024-02-26T07:27:08;0.57;;;0.43;;
27187;SDS011;14708;50.872;5.306;2024-02-26T07:29:34;1.02;;;0.52;;
27187;SDS011;14708;50.872;5.306;2024-02-26T07:32:01;2.22;;;1.23;;
27187;SDS011;14708;50.872;5.306;2024-02-26T07:34:27;0.30;;;0.30;;
27187;SDS011;14708;50.872;5.306;2024-02-26T07:36:54;0.32;;;0.32;;
27187;SDS011;14708;50.872;5.306;2024-02-26T07:39:21;0.60;;;0.52;;
27187;SDS011;14708;50.872;5.306;2024-02-26T07:41:47;0.85;;;0.60;;
27187;SDS011;14708;50.872;5.306;2024-02-26T07:44:14;0.55;;;0.45;;
27187;SDS011;14708;50.872;5.306;2024-02-26T07:46:40;0.70;;;0.40;;
27187;SDS011;14708;50.872;5.306;2024-02-26T07:49:06;0.95;;;0.60;;
27187;SDS011;14708;50.872;5.306;2024-02-26T07:51:33;1.75;;;0.63;;
27187;SDS011;14708;50.872;5.306;2024-02-26T07:54:00;4.90;;;1.35;;
27187;SDS011;14708;50.872;5.306;2024-02-26T07:56:27;5.80;;;1.67;;
27187;SDS011;14708;50.872;5.306;2024-02-26T07:58:53;11.35;;;1.55;;
27187;SDS011;14708;50.872;5.306;2024-02-26T08:01:19;9.57;;;1.70;;
27187;SDS011;14708;50.872;5.306;2024-02-26T08:03:45;7.30;;;1.85;;
27187;SDS011;14708;50.872;5.306;2024-02-26T08:06:10;6.22;;;1.50;;
27187;SDS011;14708;50.872;5.306;2024-02-26T08:08:37;8.27;;;2.10;;
27187;SDS011;14708;50.872;5.306;2024-02-26T08:11:03;9.90;;;1.95;;
27187;SDS011;14708;50.872;5.306;2024-02-26T08:13:29;6.10;;;1.80;;
27187;SDS011;14708;50.872;5.306;2024-02-26T08:15:55;4.07;;;1.63;;
27187;SDS011;14708;50.872;5.306;2024-02-26T08:18:20;8.10;;;2.70;;
27187;SDS011;14708;50.872;5.306;2024-02-26T08:20:47;4.97;;;1.73;;
27187;SDS011;14708;50.872;5.306;2024-02-26T08:23:17;8.63;;;1.92;;
27187;SDS011;14708;50.872;5.306;2024-02-26T08:25:42;8.57;;;2.85;;
27187;SDS011;14708;50.872;5.306;2024-02-26T08:28:09;12.13;;;3.25;;
27187;SDS011;14708;50.872;5.306;2024-02-26T08:30:38;4.95;;;1.70;;
27187;SDS011;14708;50.872;5.306;2024-02-26T08:33:04;5.95;;;1.73;;
27187;SDS011;14708;50.872;5.306;2024-02-26T08:35:32;3.60;;;1.65;;
27187;SDS011;14708;50.872;5.306;2024-02-26T08:37:59;5.50;;;2.35;;
27187;SDS011;14708;50.872;5.306;2024-02-26T08:40:25;8.88;;;2.00;;
27187;SDS011;14708;50.872;5.306;2024-02-26T08:42:50;4.90;;;1.70;;
27187;SDS011;14708;50.872;5.306;2024-02-26T08:45:16;9.93;;;2.20;;
27187;SDS011;14708;50.872;5.306;2024-02-26T08:47:44;10.50;;;1.92;;
27187;SDS011;14708;50.872;5.306;2024-02-26T08:50:10;3.83;;;2.00;;
27187;SDS011;14708;50.872;5.306;2024-02-26T08:52:37;5.78;;;2.10;;
27187;SDS011;14708;50.872;5.306;2024-02-26T08:55:03;8.57;;;2.83;;
27187;SDS011;14708;50.872;5.306;2024-02-26T08:57:31;6.80;;;1.58;;
27187;SDS011;14708;50.872;5.306;2024-02-26T08:59:59;4.85;;;1.90;;
27187;SDS011;14708;50.872;5.306;2024-02-26T09:02:25;6.38;;;2.47;;
27187;SDS011;14708;50.872;5.306;2024-02-26T09:04:51;7.70;;;2.30;;
27187;SDS011;14708;50.872;5.306;2024-02-26T09:07:20;5.55;;;3.00;;
27187;SDS011;14708;50.872;5.306;2024-02-26T09:09:46;8.98;;;2.35;;
27187;SDS011;14708;50.872;5.306;2024-02-26T09:12:13;6.88;;;2.40;;
27187;SDS011;14708;50.872;5.306;2024-02-26T09:14:38;13.55;;;2.45;;
27187;SDS011;14708;50.872;5.306;2024-02-26T09:17:04;5.05;;;2.58;;
27187;SDS011;14708;50.872;5.306;2024-02-26T09:19:30;9.57;;;3.03;;
27187;SDS011;14708;50.872;5.306;2024-02-26T09:21:57;12.02;;;3.75;;
27187;SDS011;14708;50.872;5.306;2024-02-26T09:24:24;14.57;;;3.97;;
27187;SDS011;14708;50.872;5.306;2024-02-26T09:26:50;9.07;;;2.60;;
27187;SDS011;14708;50.872;5.306;2024-02-26T09:29:16;13.50;;;3.25;;
27187;SDS011;14708;50.872;5.306;2024-02-26T09:31:42;10.32;;;3.38;;
27187;SDS011;14708;50.872;5.306;2024-02-26T09:34:11;12.93;;;2.53;;
27187;SDS011;14708;50.872;5.306;2024-02-26T09:36:37;12.50;;;2.63;;
27187;SDS011;14708;50.872;5.306;2024-02-26T09:39:03;12.73;;;3.22;;
27187;SDS011;14708;50.872;5.306;2024-02-26T09:41:30;12.73;;;2.90;;
27187;SDS011;14708;50.872;5.306;2024-02-26T09:43:57;9.20;;;2.97;;
27187;SDS011;14708;50.872;5.306;2024-02-26T09:46:27;6.35;;;1.98;;
27187;SDS011;14708;50.872;5.306;2024-02-26T09:48:53;13.50;;;2.78;;
27187;SDS011;14708;50.872;5.306;2024-02-26T09:51:20;7.72;;;2.10;;
27187;SDS011;14708;50.872;5.306;2024-02-26T09:53:52;6.28;;;2.13;;
27187;SDS011;14708;50.872;5.306;2024-02-26T09:56:18;9.63;;;2.42;;
27187;SDS011;14708;50.872;5.306;2024-02-26T09:58:44;9.65;;;2.85;;
27187;SDS011;14708;50.872;5.306;2024-02-26T10:01:17;6.68;;;2.10;;
27187;SDS011;14708;50.872;5.306;2024-02-26T10:03:44;8.07;;;1.85;;
27187;SDS011;14708;50.872;5.306;2024-02-26T10:06:17;10.02;;;2.10;;
27187;SDS011;14708;50.872;5.306;2024-02-26T10:08:43;3.85;;;2.13;;
27187;SDS011;14708;50.872;5.306;2024-02-26T10:11:10;6.53;;;2.20;;
27187;SDS011;14708;50.872;5.306;2024-02-26T10:13:37;3.60;;;1.80;;
27187;SDS011;14708;50.872;5.306;2024-02-26T10:16:03;10.75;;;2.42;;
27187;SDS011;14708;50.872;5.306;2024-02-26T10:18:50;6.25;;;1.50;;
27187;SDS011;14708;50.872;5.306;2024-02-26T10:21:18;6.97;;;2.13;;
27187;SDS011;14708;50.872;5.306;2024-02-26T10:23:47;3.00;;;1.70;;
27187;SDS011;14708;50.872;5.306;2024-02-26T10:26:15;7.00;;;2.63;;
27187;SDS011;14708;50.872;5.306;2024-02-26T10:28:42;6.75;;;2.10;;
27187;SDS011;14708;50.872;5.306;2024-02-26T10:31:09;3.90;;;1.67;;
27187;SDS011;14708;50.872;5.306;2024-02-26T10:33:35;9.45;;;2.45;;
27187;SDS011;14708;50.872;5.306;2024-02-26T10:36:03;9.13;;;1.58;;
27187;SDS011;14708;50.872;5.306;2024-02-26T10:38:34;3.88;;;1.55;;
27187;SDS011;14708;50.872;5.306;2024-02-26T10:41:02;4.53;;;1.77;;
27187;SDS011;14708;50.872;5.306;2024-02-26T10:43:47;3.58;;;1.58;;
27187;SDS011;14708;50.872;5.306;2024-02-26T10:46:16;3.15;;;1.45;;
27187;SDS011;14708;50.872;5.306;2024-02-26T10:48:49;4.40;;;1.73;;
27187;SDS011;14708;50.872;5.306;2024-02-26T10:51:28;4.10;;;1.73;;
27187;SDS011;14708;50.872;5.306;2024-02-26T10:53:55;5.50;;;1.88;;
27187;SDS011;14708;50.872;5.306;2024-02-26T10:56:26;4.05;;;1.20;;
27187;SDS011;14708;50.872;5.306;2024-02-26T10:58:55;6.95;;;2.08;;
27187;SDS011;14708;50.872;5.306;2024-02-26T11:01:20;2.85;;;1.48;;
27187;SDS011;14708;50.872;5.306;2024-02-26T11:03:54;4.57;;;1.85;;
27187;SDS011;14708;50.872;5.306;2024-02-26T11:06:20;6.05;;;2.47;;
27187;SDS011;14708;50.872;5.306;2024-02-26T11:08:47;6.32;;;1.80;;
27187;SDS011;14708;50.872;5.306;2024-02-26T11:11:16;4.70;;;2.13;;
27187;SDS011;14708;50.872;5.306;2024-02-26T11:13:46;8.18;;;2.28;;
27187;SDS011;14708;50.872;5.306;2024-02-26T11:16:17;4.43;;;1.63;;
27187;SDS011;14708;50.872;5.306;2024-02-26T11:18:45;2.55;;;1.00;;
27187;SDS011;14708;50.872;5.306;2024-02-26T11:21:15;3.97;;;1.50;;
27187;SDS011;14708;50.872;5.306;2024-02-26T11:23:45;4.15;;;1.77;;
27187;SDS011;14708;50.872;5.306;2024-02-26T11:26:11;5.15;;;1.77;;
27187;SDS011;14708;50.872;5.306;2024-02-26T11:28:39;2.40;;;1.20;;
27187;SDS011;14708;50.872;5.306;2024-02-26T11:31:06;4.55;;;1.13;;
27187;SDS011;14708;50.872;5.306;2024-02-26T11:33:34;2.38;;;1.27;;
27187;SDS011;14708;50.872;5.306;2024-02-26T11:36:07;3.58;;;1.15;;
27187;SDS011;14708;50.872;5.306;2024-02-26T11:38:34;4.13;;;1.85;;
27187;SDS011;14708;50.872;5.306;2024-02-26T11:41:01;5.40;;;1.70;;
27187;SDS011;14708;50.872;5.306;2024-02-26T11:46:29;8.02;;;2.88;;
27187;SDS011;14708;50.872;5.306;2024-02-26T11:51:50;4.25;;;1.70;;
27187;SDS011;14708;50.872;5.306;2024-02-26T12:02:36;9.32;;;1.52;;
27187;SDS011;14708;50.872;5.306;2024-02-26T12:05:14;2.83;;;1.52;;
27187;SDS011;14708;50.872;5.306;2024-02-26T12:07:46;5.05;;;1.80;;
27187;SDS011;14708;50.872;5.306;2024-02-26T12:10:13;3.15;;;1.40;;
27187;SDS011;14708;50.872;5.306;2024-02-26T12:15:23;4.43;;;1.83;;
27187;SDS011;14708;50.872;5.306;2024-02-26T12:17:49;5.28;;;2.05;;
27187;SDS011;14708;50.872;5.306;2024-02-26T12:20:16;3.08;;;1.58;;
27187;SDS011;14708;50.872;5.306;2024-02-26T12:22:45;3.60;;;1.30;;
27187;SDS011;14708;50.872;5.306;2024-02-26T12:25:16;5.68;;;1.65;;
27187;SDS011;14708;50.872;5.306;2024-02-26T12:27:41;2.53;;;1.10;;
27187;SDS011;14708;50.872;5.306;2024-02-26T12:30:08;3.45;;;1.58;;
27187;SDS011;14708;50.872;5.306;2024-02-26T12:32:34;2.58;;;1.45;;
27187;SDS011;14708;50.872;5.306;2024-02-26T12:35:01;1.90;;;1.25;;
27187;SDS011;14708;50.872;5.306;2024-02-26T12:37:28;3.25;;;1.30;;
27187;SDS011;14708;50.872;5.306;2024-02-26T12:39:54;3.83;;;1.33;;
27187;SDS011;14708;50.872;5.306;2024-02-26T12:42:19;3.45;;;2.00;;
27187;SDS011;14708;50.872;5.306;2024-02-26T12:44:46;3.33;;;1.58;;
27187;SDS011;14708;50.872;5.306;2024-02-26T12:47:11;2.80;;;1.13;;
27187;SDS011;14708;50.872;5.306;2024-02-26T12:49:46;2.58;;;1.15;;
27187;SDS011;14708;50.872;5.306;2024-02-26T12:52:13;2.58;;;1.25;;
27187;SDS011;14708;50.872;5.306;2024-02-26T12:54:39;1.75;;;1.10;;
27187;SDS011;14708;50.872;5.306;2024-02-26T12:57:06;1.85;;;1.08;;
27187;SDS011;14708;50.872;5.306;2024-02-26T12:59:34;4.25;;;1.23;;
27187;SDS011;14708;50.872;5.306;2024-02-26T13:02:01;2.92;;;1.55;;
27187;SDS011;14708;50.872;5.306;2024-02-26T13:04:28;3.88;;;1.27;;
27187;SDS011;14708;50.872;5.306;2024-02-26T13:06:55;2.95;;;1.27;;
27187;SDS011;14708;50.872;5.306;2024-02-26T13:09:25;2.28;;;1.13;;
27187;SDS011;14708;50.872;5.306;2024-02-26T13:11:55;2.47;;;1.40;;
27187;SDS011;14708;50.872;5.306;2024-02-26T13:14:21;3.50;;;1.50;;
27187;SDS011;14708;50.872;5.306;2024-02-26T13:17:05;3.08;;;1.15;;
27187;SDS011;14708;50.872;5.306;2024-02-26T13:19:31;2.15;;;1.10;;
27187;SDS011;14708;50.872;5.306;2024-02-26T13:22:03;2.08;;;1.02;;
27187;SDS011;14708;50.872;5.306;2024-02-26T13:24:31;0.90;;;0.73;;
27187;SDS011;14708;50.872;5.306;2024-02-26T13:29:28;2.83;;;1.27;;
27187;SDS011;14708;50.872;5.306;2024-02-26T13:31:55;4.07;;;1.02;;
27187;SDS011;14708;50.872;5.306;2024-02-26T13:34:22;1.88;;;1.00;;
27187;SDS011;14708;50.872;5.306;2024-02-26T13:36:50;1.52;;;0.88;;
27187;SDS011;14708;50.872;5.306;2024-02-26T13:39:23;1.45;;;1.00;;
27187;SDS011;14708;50.872;5.306;2024-02-26T13:41:50;1.23;;;0.85;;
27187;SDS011;14708;50.872;5.306;2024-02-26T13:44:16;2.13;;;1.13;;
27187;SDS011;14708;50.872;5.306;2024-02-26T13:46:42;2.05;;;1.00;;
27187;SDS011;14708;50.872;5.306;2024-02-26T13:49:08;3.28;;;0.80;;
27187;SDS011;14708;50.872;5.306;2024-02-26T13:51:34;3.03;;;1.20;;
27187;SDS011;14708;50.872;5.306;2024-02-26T13:54:01;1.98;;;0.93;;
27187;SDS011;14708;50.872;5.306;2024-02-26T13:56:29;2.90;;;1.70;;
27187;SDS011;14708;50.872;5.306;2024-02-26T13:58:55;2.22;;;1.27;;
27187;SDS011;14708;50.872;5.306;2024-02-26T14:01:21;1.48;;;1.00;;
27187;SDS011;14708;50.872;5.306;2024-02-26T14:03:48;2.03;;;0.98;;
27187;SDS011;14708;50.872;5.306;2024-02-26T14:06:14;17.20;;;1.80;;
27187;SDS011;14708;50.872;5.306;2024-02-26T14:08:41;1.10;;;1.00;;
27187;SDS011;14708;50.872;5.306;2024-02-26T14:11:07;2.47;;;0.82;;
27187;SDS011;14708;50.872;5.306;2024-02-26T14:13:32;2.20;;;0.82;;
27187;SDS011;14708;50.872;5.306;2024-02-26T14:15:58;4.05;;;1.60;;
27187;SDS011;14708;50.872;5.306;2024-02-26T14:18:24;1.95;;;0.80;;
27187;SDS011;14708;50.872;5.306;2024-02-26T14:20:51;0.73;;;0.70;;
27187;SDS011;14708;50.872;5.306;2024-02-26T14:23:17;0.93;;;0.70;;
27187;SDS011;14708;50.872;5.306;2024-02-26T14:25:43;1.83;;;0.85;;
27187;SDS011;14708;50.872;5.306;2024-02-26T14:28:10;3.08;;;1.20;;
27187;SDS011;14708;50.872;5.306;2024-02-26T14:30:36;7.15;;;1.35;;
27187;SDS011;14708;50.872;5.306;2024-02-26T14:33:01;1.80;;;0.65;;
27187;SDS011;14708;50.872;5.306;2024-02-26T14:35:28;1.83;;;0.95;;
27187;SDS011;14708;50.872;5.306;2024-02-26T14:37:53;1.85;;;1.15;;
27187;SDS011;14708;50.872;5.306;2024-02-26T14:40:20;1.77;;;1.33;;
27187;SDS011;14708;50.872;5.306;2024-02-26T14:42:45;2.65;;;1.27;;
27187;SDS011;14708;50.872;5.306;2024-02-26T14:45:11;2.78;;;1.00;;
27187;SDS011;14708;50.872;5.306;2024-02-26T14:47:41;1.90;;;0.90;;
27187;SDS011;14708;50.872;5.306;2024-02-26T14:50:07;1.60;;;1.42;;
27187;SDS011;14708;50.872;5.306;2024-02-26T14:52:33;2.85;;;1.55;;
27187;SDS011;14708;50.872;5.306;2024-02-26T14:54:58;6.75;;;2.33;;
27187;SDS011;14708;50.872;5.306;2024-02-26T14:57:24;2.80;;;1.38;;
27187;SDS011;14708;50.872;5.306;2024-02-26T14:59:52;3.17;;;1.00;;
27187;SDS011;14708;50.872;5.306;2024-02-26T15:02:17;4.45;;;1.17;;
27187;SDS011;14708;50.872;5.306;2024-02-26T15:04:45;5.47;;;2.10;;
27187;SDS011;14708;50.872;5.306;2024-02-26T15:07:11;5.68;;;1.42;;
27187;SDS011;14708;50.872;5.306;2024-02-26T15:09:37;5.78;;;1.92;;